createdAt,value
2022-12-27T00:04:43.496Z,11.57
2022-12-27T00:09:45.918Z,11.43
2022-12-27T00:14:48.347Z,12.65
2022-12-27T00:19:50.782Z,12.63
2022-12-27T00:24:53.692Z,12.43
2022-12-27T00:29:56.153Z,15.82
2022-12-27T00:34:58.658Z,13.75
2022-12-27T00:40:01.087Z,18.10
2022-12-27T00:45:03.640Z,18.20
2022-12-27T00:50:06.387Z,15.87
2022-12-27T00:55:10.058Z,18.33
2022-12-27T01:00:14.172Z,15.18
2022-12-27T01:05:16.649Z,18.65
2022-12-27T01:10:20.217Z,16.25
2022-12-27T01:15:22.642Z,15.27
2022-12-27T01:20:25.136Z,16.65
2022-12-27T01:25:27.577Z,16.23
2022-12-27T01:30:30.108Z,14.63
2022-12-27T01:35:32.521Z,15.20
2022-12-27T01:40:37.133Z,17.07
2022-12-27T01:45:39.937Z,17.08
2022-12-27T01:50:58.947Z,17.38
2022-12-27T01:56:13.924Z,16.52
2022-12-27T02:01:33.133Z,18.77
2022-12-27T02:06:36.716Z,18.77
2022-12-27T02:11:51.384Z,18.95
2022-12-27T02:16:54.462Z,14.57
2022-12-27T02:22:24.607Z,16.15
2022-12-27T02:27:56.666Z,16.90
2022-12-27T02:33:05.695Z,14.47
2022-12-27T02:38:13.992Z,15.68
2022-12-27T02:43:35.224Z,16.00
2022-12-27T02:48:56.213Z,15.38
2022-12-27T02:54:04.282Z,14.73
2022-12-27T02:59:31.785Z,15.07
2022-12-27T03:04:55.517Z,14.13
2022-12-27T03:10:30.655Z,15.57
2022-12-27T03:15:57.359Z,12.30
2022-12-27T03:21:19.329Z,15.15
2022-12-27T03:26:22.962Z,14.37
2022-12-27T03:31:53.444Z,11.48
2022-12-27T03:37:17.215Z,15.40
2022-12-27T03:42:46.432Z,12.18
2022-12-27T03:47:54.672Z,12.95
2022-12-27T03:53:01.222Z,13.30
2022-12-27T03:58:03.756Z,14.00
2022-12-27T04:03:06.256Z,18.35
2022-12-27T04:08:27.156Z,14.27
2022-12-27T04:13:47.992Z,12.70
2022-12-27T04:19:09.085Z,14.20
2022-12-27T04:24:29.987Z,12.57
2022-12-27T04:29:50.834Z,14.75
2022-12-27T04:34:53.233Z,11.05
2022-12-27T04:40:14.533Z,12.15
2022-12-27T04:45:35.584Z,14.97
2022-12-27T04:50:56.448Z,14.60
2022-12-27T04:55:59.406Z,13.60
2022-12-27T05:01:22.897Z,14.98
2022-12-27T05:06:25.499Z,13.32
2022-12-27T05:11:46.524Z,13.90
2022-12-27T05:16:49.088Z,13.95
2022-12-27T05:22:09.920Z,12.63
2022-12-27T05:27:12.351Z,11.93
2022-12-27T05:32:14.771Z,15.43
2022-12-27T05:37:17.171Z,13.00
2022-12-27T05:42:19.583Z,14.88
2022-12-27T05:47:22.020Z,15.15
2022-12-27T05:52:25.070Z,16.73
2022-12-27T05:57:27.766Z,13.63
2022-12-27T06:02:30.361Z,14.27
2022-12-27T06:07:32.833Z,14.23
2022-12-27T06:12:35.399Z,12.68
2022-12-27T06:17:37.839Z,12.27
2022-12-27T06:22:40.274Z,11.88
2022-12-27T06:27:42.939Z,17.97
2022-12-27T06:32:45.409Z,16.73
2022-12-27T06:37:47.895Z,18.10
2022-12-27T06:42:50.621Z,18.30
2022-12-27T06:47:53.136Z,19.33
2022-12-27T06:52:55.583Z,18.07
2022-12-27T06:57:58.055Z,13.48
2022-12-27T07:03:00.531Z,17.95
2022-12-27T07:08:03.124Z,17.02
2022-12-27T07:13:05.814Z,31.13
2022-12-27T07:18:08.432Z,38.53
2022-12-27T07:23:14.389Z,29.60
2022-12-27T07:28:21.491Z,27.65
2022-12-27T07:33:24.211Z,40.22
2022-12-27T07:38:26.796Z,28.48
2022-12-27T07:43:34.027Z,25.70
2022-12-27T07:48:37.023Z,31.40
2022-12-27T07:53:39.716Z,42.22
2022-12-27T07:58:44.331Z,33.90
2022-12-27T08:03:47.183Z,36.63
2022-12-27T08:08:50.305Z,30.10
2022-12-27T08:13:53.194Z,32.15
2022-12-27T08:18:56.342Z,47.42
2022-12-27T08:23:58.894Z,40.40
2022-12-27T08:29:01.384Z,35.13
2022-12-27T08:34:03.902Z,34.00
2022-12-27T08:39:07.449Z,36.40
2022-12-27T08:44:11.116Z,21.90
2022-12-27T08:49:13.617Z,19.98
2022-12-27T08:54:16.180Z,20.73
2022-12-27T08:59:18.670Z,22.17
2022-12-27T09:04:21.171Z,19.38
2022-12-27T09:09:23.659Z,19.75
2022-12-27T09:14:26.166Z,19.52
2022-12-27T09:19:28.737Z,19.50
2022-12-27T09:24:31.269Z,16.77
2022-12-27T09:29:33.861Z,19.25
2022-12-27T09:34:36.303Z,22.45
2022-12-27T09:39:38.785Z,23.40
2022-12-27T09:44:51.090Z,21.73
2022-12-27T09:49:56.748Z,20.03
2022-12-27T09:55:05.374Z,23.08
2022-12-27T10:00:34.295Z,23.35
2022-12-27T10:05:38.515Z,27.83
2022-12-27T10:10:44.671Z,18.80
2022-12-27T10:15:50.313Z,16.90
2022-12-27T10:21:18.212Z,14.15
2022-12-27T10:26:21.041Z,16.48
2022-12-27T10:31:24.632Z,25.25
2022-12-27T10:36:28.574Z,16.63
2022-12-27T10:42:05.807Z,11.90
2022-12-27T10:47:08.372Z,13.05
2022-12-27T10:52:16.330Z,13.52
2022-12-27T10:57:36.424Z,12.80
2022-12-27T11:02:56.839Z,13.48
2022-12-27T11:08:01.408Z,13.53
2022-12-27T11:13:14.004Z,15.02
2022-12-27T11:18:18.958Z,13.70
2022-12-27T11:23:24.337Z,15.73
2022-12-27T11:28:32.540Z,19.05
2022-12-27T11:33:46.644Z,30.83
2022-12-27T11:38:50.942Z,34.78
2022-12-27T11:44:13.662Z,20.35
2022-12-27T11:49:31.145Z,27.47
2022-12-27T11:54:55.384Z,17.55
2022-12-27T12:00:17.935Z,21.03
2022-12-27T12:05:32.496Z,21.38
2022-12-27T12:10:55.777Z,26.27
2022-12-27T12:16:52.215Z,34.72
2022-12-27T12:22:06.656Z,34.22
2022-12-27T12:27:14.419Z,24.93
2022-12-27T12:32:31.422Z,31.58
2022-12-27T12:38:05.667Z,38.80
2022-12-27T12:43:35.979Z,31.70
2022-12-27T12:48:41.351Z,31.23
2022-12-27T12:53:55.856Z,28.50
2022-12-27T12:59:26.590Z,31.33
2022-12-27T13:04:35.213Z,22.08
2022-12-27T13:10:16.063Z,24.83
2022-12-27T13:15:24.104Z,28.88
2022-12-27T13:20:29.434Z,19.23
2022-12-27T13:26:02.135Z,27.75
2022-12-27T13:31:14.620Z,47.15
2022-12-27T13:36:31.488Z,30.63
2022-12-27T13:41:59.079Z,30.13
2022-12-27T13:47:12.756Z,23.40
2022-12-27T13:52:50.547Z,28.20
2022-12-27T13:58:19.108Z,31.50
2022-12-27T14:03:40.112Z,30.80
2022-12-27T14:09:09.772Z,41.05
2022-12-27T14:14:16.330Z,49.60
2022-12-27T14:19:43.547Z,65.18
2022-12-27T14:25:10.676Z,34.38
2022-12-27T14:30:34.810Z,50.63
2022-12-27T14:36:15.373Z,58.40
2022-12-27T14:41:52.856Z,45.10
2022-12-27T14:47:13.838Z,32.40
2022-12-27T14:53:03.465Z,26.60
2022-12-27T14:58:30.653Z,40.60
2022-12-27T15:03:57.415Z,41.50
2022-12-27T15:09:20.143Z,30.37
2022-12-27T15:14:22.555Z,37.92
2022-12-27T15:19:49.235Z,57.92
2022-12-27T15:24:58.490Z,68.67
2022-12-27T15:30:03.887Z,49.28
2022-12-27T15:35:28.718Z,35.13
2022-12-27T15:40:34.321Z,33.20
2022-12-27T15:46:01.073Z,32.05
2022-12-27T15:51:31.725Z,46.30
2022-12-27T15:56:43.781Z,38.65
2022-12-27T16:01:53.692Z,36.13
2022-12-27T16:07:04.142Z,37.30
2022-12-27T16:12:13.245Z,44.92
2022-12-27T16:17:53.970Z,51.80
2022-12-27T16:23:04.677Z,54.03
2022-12-27T16:28:19.219Z,52.80
2022-12-27T16:33:26.399Z,47.20
2022-12-27T16:38:30.717Z,49.17
2022-12-27T16:43:54.817Z,56.45
2022-12-27T16:49:08.345Z,45.92
2022-12-27T16:54:29.881Z,44.97
2022-12-27T17:00:10.440Z,47.90
2022-12-27T17:05:15.938Z,47.35
2022-12-27T17:10:43.931Z,50.33
2022-12-27T17:15:54.556Z,53.65
2022-12-27T17:21:30.233Z,56.57
2022-12-27T17:27:03.135Z,61.35
2022-12-27T17:32:33.567Z,58.25
2022-12-27T17:37:45.345Z,59.60
2022-12-27T17:43:14.063Z,43.70
2022-12-27T17:48:43.352Z,37.53
2022-12-27T17:54:08.833Z,32.15
2022-12-27T17:59:13.001Z,27.55
2022-12-27T18:04:48.668Z,24.43
2022-12-27T18:09:56.601Z,26.90
2022-12-27T18:15:05.670Z,26.27
2022-12-27T18:20:27.186Z,26.48
2022-12-27T18:25:51.119Z,21.48
2022-12-27T18:31:11.285Z,26.80
2022-12-27T18:36:27.591Z,27.63
2022-12-27T18:41:37.534Z,25.73
2022-12-27T18:46:40.386Z,26.88
2022-12-27T18:51:42.954Z,26.90
2022-12-27T18:56:45.603Z,27.40
2022-12-27T19:01:48.760Z,26.13
2022-12-27T19:07:00.695Z,26.73
2022-12-27T19:12:07.848Z,29.17
2022-12-27T19:17:24.319Z,26.60
2022-12-27T19:22:48.979Z,21.90
2022-12-27T19:28:23.078Z,18.92
2022-12-27T19:33:26.439Z,21.87
2022-12-27T19:38:30.746Z,16.63
2022-12-27T19:43:42.410Z,16.17
2022-12-27T19:49:07.779Z,23.02
2022-12-27T19:54:21.443Z,16.98
2022-12-27T19:59:25.243Z,16.13
2022-12-27T20:04:29.082Z,15.38
2022-12-27T20:09:32.687Z,15.18
2022-12-27T20:14:35.212Z,16.27
2022-12-27T20:19:37.635Z,19.63
2022-12-27T20:24:40.161Z,22.17
2022-12-27T20:29:42.755Z,24.27
2022-12-27T20:34:45.272Z,26.35
2022-12-27T20:39:49.980Z,27.73
2022-12-27T20:44:52.538Z,26.35
2022-12-27T20:49:54.996Z,23.37
2022-12-27T20:54:57.465Z,21.70
2022-12-27T21:00:00.517Z,20.90
2022-12-27T21:05:03.093Z,20.08
2022-12-27T21:10:09.339Z,20.02
2022-12-27T21:15:12.451Z,18.43
2022-12-27T21:20:15.148Z,17.70
2022-12-27T21:25:17.710Z,14.93
2022-12-27T21:30:20.398Z,13.07
2022-12-27T21:35:22.848Z,13.13
2022-12-27T21:40:25.376Z,11.70
2022-12-27T21:45:27.882Z,12.18
2022-12-27T21:50:36.994Z,11.65
2022-12-27T21:55:39.709Z,11.32
2022-12-27T22:00:42.643Z,14.52
2022-12-27T22:05:45.034Z,14.77
2022-12-27T22:10:55.823Z,11.25
2022-12-27T22:15:59.925Z,9.20
2022-12-27T22:21:05.151Z,9.98
2022-12-27T22:26:12.002Z,21.17
2022-12-27T22:31:19.615Z,19.80
2022-12-27T22:36:24.648Z,15.38
2022-12-27T22:41:32.779Z,14.13
2022-12-27T22:47:24.568Z,12.55
2022-12-27T22:51:58.223Z,12.05
2022-12-27T22:57:00.825Z,11.93
2022-12-27T23:02:03.353Z,12.45
2022-12-27T23:07:06.066Z,12.98
2022-12-27T23:12:08.506Z,12.07
2022-12-27T23:17:10.972Z,10.15
2022-12-27T23:22:13.431Z,10.17
2022-12-27T23:27:15.904Z,11.32
2022-12-27T23:32:18.339Z,9.00
2022-12-27T23:37:21.123Z,8.23
2022-12-27T23:42:23.604Z,8.77
2022-12-27T23:47:26.059Z,9.57
2022-12-27T23:52:28.553Z,10.73
2022-12-27T23:57:31.413Z,9.35
